sensor_id;sensor_type;location;lat;lon;timestamp;P1;durP1;ratioP1;P2;durP2;ratioP2
60243;SDS011;46106;51.468;5.814;2023-04-07T00:01:28;150.77;;;34.30;;
60243;SDS011;46106;51.468;5.814;2023-04-07T00:03:54;178.80;;;35.00;;
60243;SDS011;46106;51.468;5.814;2023-04-07T00:06:20;147.90;;;34.80;;
60243;SDS011;46106;51.468;5.814;2023-04-07T00:08:45;150.35;;;34.67;;
60243;SDS011;46106;51.468;5.814;2023-04-07T00:11:10;157.68;;;33.88;;
60243;SDS011;46106;51.468;5.814;2023-04-07T00:13:39;146.60;;;34.55;;
60243;SDS011;46106;51.468;5.814;2023-04-07T00:16:04;141.25;;;33.85;;
60243;SDS011;46106;51.468;5.814;2023-04-07T00:18:30;132.95;;;35.10;;
60243;SDS011;46106;51.468;5.814;2023-04-07T00:20:55;148.65;;;34.28;;
60243;SDS011;46106;51.468;5.814;2023-04-07T00:23:21;117.60;;;33.13;;
60243;SDS011;46106;51.468;5.814;2023-04-07T00:25:47;133.82;;;33.83;;
60243;SDS011;46106;51.468;5.814;2023-04-07T00:28:13;153.40;;;35.92;;
60243;SDS011;46106;51.468;5.814;2023-04-07T00:30:38;138.00;;;34.13;;
60243;SDS011;46106;51.468;5.814;2023-04-07T00:33:03;125.25;;;34.85;;
60243;SDS011;46106;51.468;5.814;2023-04-07T00:35:29;113.65;;;32.55;;
60243;SDS011;46106;51.468;5.814;2023-04-07T00:37:54;119.40;;;32.67;;
60243;SDS011;46106;51.468;5.814;2023-04-07T00:40:21;106.72;;;29.80;;
60243;SDS011;46106;51.468;5.814;2023-04-07T00:42:46;110.85;;;32.83;;
60243;SDS011;46106;51.468;5.814;2023-04-07T00:45:12;104.82;;;30.23;;
60243;SDS011;46106;51.468;5.814;2023-04-07T00:47:37;111.65;;;31.52;;
60243;SDS011;46106;51.468;5.814;2023-04-07T00:50:03;107.82;;;30.60;;
60243;SDS011;46106;51.468;5.814;2023-04-07T00:52:29;103.82;;;30.83;;
60243;SDS011;46106;51.468;5.814;2023-04-07T00:54:57;98.78;;;30.63;;
60243;SDS011;46106;51.468;5.814;2023-04-07T00:57:24;102.43;;;30.15;;
60243;SDS011;46106;51.468;5.814;2023-04-07T00:59:50;102.78;;;30.13;;
60243;SDS011;46106;51.468;5.814;2023-04-07T01:02:18;101.72;;;29.50;;
60243;SDS011;46106;51.468;5.814;2023-04-07T01:07:38;83.13;;;27.27;;
60243;SDS011;46106;51.468;5.814;2023-04-07T01:10:07;81.63;;;25.58;;
60243;SDS011;46106;51.468;5.814;2023-04-07T01:12:46;78.05;;;25.83;;
60243;SDS011;46106;51.468;5.814;2023-04-07T01:15:21;76.78;;;25.88;;
60243;SDS011;46106;51.468;5.814;2023-04-07T01:17:50;66.40;;;23.25;;
60243;SDS011;46106;51.468;5.814;2023-04-07T01:20:20;65.28;;;22.08;;
60243;SDS011;46106;51.468;5.814;2023-04-07T01:22:52;56.60;;;21.17;;
60243;SDS011;46106;51.468;5.814;2023-04-07T01:30:59;44.40;;;17.90;;
60243;SDS011;46106;51.468;5.814;2023-04-07T01:33:26;51.20;;;18.80;;
60243;SDS011;46106;51.468;5.814;2023-04-07T01:35:56;45.75;;;18.75;;
60243;SDS011;46106;51.468;5.814;2023-04-07T01:38:23;44.10;;;18.08;;
60243;SDS011;46106;51.468;5.814;2023-04-07T01:40:50;42.63;;;17.63;;
60243;SDS011;46106;51.468;5.814;2023-04-07T01:43:17;43.35;;;19.95;;
60243;SDS011;46106;51.468;5.814;2023-04-07T01:45:43;42.47;;;18.10;;
60243;SDS011;46106;51.468;5.814;2023-04-07T01:48:09;48.15;;;19.17;;
60243;SDS011;46106;51.468;5.814;2023-04-07T01:50:38;58.30;;;21.98;;
60243;SDS011;46106;51.468;5.814;2023-04-07T01:53:04;57.05;;;21.70;;
60243;SDS011;46106;51.468;5.814;2023-04-07T01:55:31;63.90;;;22.02;;
60243;SDS011;46106;51.468;5.814;2023-04-07T01:57:57;62.72;;;23.40;;
60243;SDS011;46106;51.468;5.814;2023-04-07T02:00:22;57.95;;;22.80;;
60243;SDS011;46106;51.468;5.814;2023-04-07T02:02:48;64.95;;;25.00;;
60243;SDS011;46106;51.468;5.814;2023-04-07T02:05:19;56.20;;;21.45;;
60243;SDS011;46106;51.468;5.814;2023-04-07T02:07:53;51.60;;;21.65;;
60243;SDS011;46106;51.468;5.814;2023-04-07T02:10:22;55.40;;;20.98;;
60243;SDS011;46106;51.468;5.814;2023-04-07T02:12:51;43.25;;;19.70;;
60243;SDS011;46106;51.468;5.814;2023-04-07T02:15:18;52.40;;;18.92;;
60243;SDS011;46106;51.468;5.814;2023-04-07T02:17:46;47.83;;;18.58;;
60243;SDS011;46106;51.468;5.814;2023-04-07T02:20:14;53.67;;;19.08;;
60243;SDS011;46106;51.468;5.814;2023-04-07T02:22:40;48.08;;;18.92;;
60243;SDS011;46106;51.468;5.814;2023-04-07T02:25:19;61.03;;;18.95;;
60243;SDS011;46106;51.468;5.814;2023-04-07T02:27:46;53.15;;;19.85;;
60243;SDS011;46106;51.468;5.814;2023-04-07T02:30:11;40.95;;;18.35;;
60243;SDS011;46106;51.468;5.814;2023-04-07T02:32:37;56.05;;;19.33;;
60243;SDS011;46106;51.468;5.814;2023-04-07T02:35:02;51.90;;;18.92;;
60243;SDS011;46106;51.468;5.814;2023-04-07T02:37:28;51.67;;;17.55;;
60243;SDS011;46106;51.468;5.814;2023-04-07T02:39:54;47.80;;;18.00;;
60243;SDS011;46106;51.468;5.814;2023-04-07T02:42:19;43.22;;;17.80;;
60243;SDS011;46106;51.468;5.814;2023-04-07T02:44:45;42.50;;;18.27;;
60243;SDS011;46106;51.468;5.814;2023-04-07T02:47:10;52.05;;;19.05;;
60243;SDS011;46106;51.468;5.814;2023-04-07T02:49:36;57.80;;;19.05;;
60243;SDS011;46106;51.468;5.814;2023-04-07T02:52:01;46.55;;;18.02;;
60243;SDS011;46106;51.468;5.814;2023-04-07T02:54:26;51.90;;;18.00;;
60243;SDS011;46106;51.468;5.814;2023-04-07T02:56:52;41.75;;;17.05;;
60243;SDS011;46106;51.468;5.814;2023-04-07T02:59:17;37.50;;;14.40;;
60243;SDS011;46106;51.468;5.814;2023-04-07T03:01:43;31.13;;;11.63;;
60243;SDS011;46106;51.468;5.814;2023-04-07T03:04:08;26.75;;;11.35;;
60243;SDS011;46106;51.468;5.814;2023-04-07T03:06:33;26.75;;;10.43;;
60243;SDS011;46106;51.468;5.814;2023-04-07T03:08:59;16.23;;;8.25;;
60243;SDS011;46106;51.468;5.814;2023-04-07T03:11:25;21.45;;;8.40;;
60243;SDS011;46106;51.468;5.814;2023-04-07T03:13:51;16.88;;;7.95;;
60243;SDS011;46106;51.468;5.814;2023-04-07T03:16:16;25.25;;;8.80;;
60243;SDS011;46106;51.468;5.814;2023-04-07T03:18:41;16.65;;;7.93;;
60243;SDS011;46106;51.468;5.814;2023-04-07T03:21:07;22.77;;;8.60;;
60243;SDS011;46106;51.468;5.814;2023-04-07T03:23:33;19.58;;;9.68;;
60243;SDS011;46106;51.468;5.814;2023-04-07T03:25:58;25.65;;;10.07;;
60243;SDS011;46106;51.468;5.814;2023-04-07T03:28:24;24.85;;;10.10;;
60243;SDS011;46106;51.468;5.814;2023-04-07T03:30:49;26.95;;;9.73;;
60243;SDS011;46106;51.468;5.814;2023-04-07T03:33:14;35.97;;;10.18;;
60243;SDS011;46106;51.468;5.814;2023-04-07T03:35:41;26.10;;;9.05;;
60243;SDS011;46106;51.468;5.814;2023-04-07T03:38:06;28.67;;;9.65;;
60243;SDS011;46106;51.468;5.814;2023-04-07T03:40:35;22.45;;;10.10;;
60243;SDS011;46106;51.468;5.814;2023-04-07T03:43:01;18.55;;;9.48;;
60243;SDS011;46106;51.468;5.814;2023-04-07T03:45:27;30.45;;;10.02;;
60243;SDS011;46106;51.468;5.814;2023-04-07T03:47:52;24.33;;;9.65;;
60243;SDS011;46106;51.468;5.814;2023-04-07T03:50:18;27.45;;;10.00;;
60243;SDS011;46106;51.468;5.814;2023-04-07T03:52:44;26.77;;;10.20;;
60243;SDS011;46106;51.468;5.814;2023-04-07T03:55:09;27.17;;;10.30;;
60243;SDS011;46106;51.468;5.814;2023-04-07T03:57:35;33.75;;;11.23;;
60243;SDS011;46106;51.468;5.814;2023-04-07T04:00:01;33.05;;;9.93;;
60243;SDS011;46106;51.468;5.814;2023-04-07T04:02:26;24.10;;;10.02;;
60243;SDS011;46106;51.468;5.814;2023-04-07T04:04:52;29.02;;;10.68;;
60243;SDS011;46106;51.468;5.814;2023-04-07T04:07:17;31.13;;;10.48;;
60243;SDS011;46106;51.468;5.814;2023-04-07T04:09:43;34.25;;;10.32;;
60243;SDS011;46106;51.468;5.814;2023-04-07T04:12:08;28.60;;;9.85;;
60243;SDS011;46106;51.468;5.814;2023-04-07T04:14:34;28.25;;;9.88;;
60243;SDS011;46106;51.468;5.814;2023-04-07T04:16:59;19.90;;;9.57;;
60243;SDS011;46106;51.468;5.814;2023-04-07T04:19:25;29.05;;;9.70;;
60243;SDS011;46106;51.468;5.814;2023-04-07T04:21:50;21.02;;;9.18;;
60243;SDS011;46106;51.468;5.814;2023-04-07T04:24:16;28.42;;;9.98;;
60243;SDS011;46106;51.468;5.814;2023-04-07T04:26:41;24.80;;;9.43;;
60243;SDS011;46106;51.468;5.814;2023-04-07T04:29:07;25.92;;;9.43;;
60243;SDS011;46106;51.468;5.814;2023-04-07T04:31:35;20.75;;;8.73;;
60243;SDS011;46106;51.468;5.814;2023-04-07T04:34:00;30.92;;;9.80;;
60243;SDS011;46106;51.468;5.814;2023-04-07T04:36:26;26.13;;;9.55;;
60243;SDS011;46106;51.468;5.814;2023-04-07T04:38:52;32.55;;;9.45;;
60243;SDS011;46106;51.468;5.814;2023-04-07T04:41:17;29.48;;;10.23;;
60243;SDS011;46106;51.468;5.814;2023-04-07T04:43:43;24.60;;;9.05;;
60243;SDS011;46106;51.468;5.814;2023-04-07T04:46:08;44.63;;;9.68;;
60243;SDS011;46106;51.468;5.814;2023-04-07T04:48:34;31.23;;;10.77;;
60243;SDS011;46106;51.468;5.814;2023-04-07T04:50:59;34.95;;;9.73;;
60243;SDS011;46106;51.468;5.814;2023-04-07T04:53:25;29.90;;;10.02;;
60243;SDS011;46106;51.468;5.814;2023-04-07T04:55:50;35.13;;;9.68;;
60243;SDS011;46106;51.468;5.814;2023-04-07T04:58:17;35.75;;;9.95;;
60243;SDS011;46106;51.468;5.814;2023-04-07T05:00:44;33.53;;;11.20;;
60243;SDS011;46106;51.468;5.814;2023-04-07T05:03:10;30.67;;;10.07;;
60243;SDS011;46106;51.468;5.814;2023-04-07T05:05:35;32.40;;;10.32;;
60243;SDS011;46106;51.468;5.814;2023-04-07T05:08:01;28.63;;;10.52;;
60243;SDS011;46106;51.468;5.814;2023-04-07T05:10:26;34.72;;;10.70;;
60243;SDS011;46106;51.468;5.814;2023-04-07T05:12:52;27.60;;;10.32;;
60243;SDS011;46106;51.468;5.814;2023-04-07T05:15:17;45.47;;;9.88;;
60243;SDS011;46106;51.468;5.814;2023-04-07T05:17:43;34.70;;;9.68;;
60243;SDS011;46106;51.468;5.814;2023-04-07T05:20:08;38.78;;;10.02;;
60243;SDS011;46106;51.468;5.814;2023-04-07T05:22:35;36.85;;;9.73;;
60243;SDS011;46106;51.468;5.814;2023-04-07T05:25:01;30.67;;;9.50;;
60243;SDS011;46106;51.468;5.814;2023-04-07T05:27:26;38.80;;;10.38;;
60243;SDS011;46106;51.468;5.814;2023-04-07T05:29:52;32.97;;;10.07;;
60243;SDS011;46106;51.468;5.814;2023-04-07T05:32:17;37.47;;;10.32;;
60243;SDS011;46106;51.468;5.814;2023-04-07T05:34:43;30.67;;;10.68;;
60243;SDS011;46106;51.468;5.814;2023-04-07T05:37:09;28.75;;;10.02;;
60243;SDS011;46106;51.468;5.814;2023-04-07T05:39:35;33.05;;;11.65;;
60243;SDS011;46106;51.468;5.814;2023-04-07T05:42:00;39.88;;;11.77;;
60243;SDS011;46106;51.468;5.814;2023-04-07T05:44:27;34.15;;;10.75;;
60243;SDS011;46106;51.468;5.814;2023-04-07T05:46:52;35.88;;;12.35;;
60243;SDS011;46106;51.468;5.814;2023-04-07T05:49:17;39.63;;;12.32;;
60243;SDS011;46106;51.468;5.814;2023-04-07T05:51:43;59.05;;;13.02;;
60243;SDS011;46106;51.468;5.814;2023-04-07T05:54:08;38.20;;;12.23;;
60243;SDS011;46106;51.468;5.814;2023-04-07T05:56:34;33.03;;;12.23;;
60243;SDS011;46106;51.468;5.814;2023-04-07T05:59:03;37.00;;;12.50;;
60243;SDS011;46106;51.468;5.814;2023-04-07T06:01:28;39.25;;;13.80;;
60243;SDS011;46106;51.468;5.814;2023-04-07T06:03:54;55.53;;;14.60;;
60243;SDS011;46106;51.468;5.814;2023-04-07T06:06:19;42.50;;;14.40;;
60243;SDS011;46106;51.468;5.814;2023-04-07T06:08:45;42.47;;;15.00;;
60243;SDS011;46106;51.468;5.814;2023-04-07T06:11:11;51.90;;;16.55;;
60243;SDS011;46106;51.468;5.814;2023-04-07T06:13:36;58.22;;;15.32;;
60243;SDS011;46106;51.468;5.814;2023-04-07T06:16:02;42.97;;;14.82;;
60243;SDS011;46106;51.468;5.814;2023-04-07T06:18:27;55.25;;;16.35;;
60243;SDS011;46106;51.468;5.814;2023-04-07T06:20:53;57.58;;;16.10;;
60243;SDS011;46106;51.468;5.814;2023-04-07T06:23:18;56.60;;;15.65;;
60243;SDS011;46106;51.468;5.814;2023-04-07T06:25:44;54.92;;;16.75;;
60243;SDS011;46106;51.468;5.814;2023-04-07T06:28:09;48.35;;;15.27;;
60243;SDS011;46106;51.468;5.814;2023-04-07T06:30:35;62.05;;;16.30;;
60243;SDS011;46106;51.468;5.814;2023-04-07T06:33:00;48.70;;;15.73;;
60243;SDS011;46106;51.468;5.814;2023-04-07T06:35:26;61.05;;;17.23;;
60243;SDS011;46106;51.468;5.814;2023-04-07T06:37:51;54.83;;;16.40;;
60243;SDS011;46106;51.468;5.814;2023-04-07T06:40:17;50.53;;;15.40;;
60243;SDS011;46106;51.468;5.814;2023-04-07T06:42:43;62.28;;;17.30;;
60243;SDS011;46106;51.468;5.814;2023-04-07T06:45:08;51.55;;;16.08;;
60243;SDS011;46106;51.468;5.814;2023-04-07T06:47:34;42.05;;;15.85;;
60243;SDS011;46106;51.468;5.814;2023-04-07T06:49:59;59.80;;;16.45;;
60243;SDS011;46106;51.468;5.814;2023-04-07T06:52:28;42.88;;;15.43;;
60243;SDS011;46106;51.468;5.814;2023-04-07T06:54:53;48.75;;;15.27;;
60243;SDS011;46106;51.468;5.814;2023-04-07T06:57:18;54.70;;;16.17;;
60243;SDS011;46106;51.468;5.814;2023-04-07T06:59:44;50.00;;;15.77;;
60243;SDS011;46106;51.468;5.814;2023-04-07T07:02:10;56.30;;;16.33;;
60243;SDS011;46106;51.468;5.814;2023-04-07T07:04:35;44.38;;;14.57;;
60243;SDS011;46106;51.468;5.814;2023-04-07T07:07:01;49.70;;;15.18;;
60243;SDS011;46106;51.468;5.814;2023-04-07T07:09:27;46.33;;;14.60;;
60243;SDS011;46106;51.468;5.814;2023-04-07T07:11:52;52.78;;;14.90;;
60243;SDS011;46106;51.468;5.814;2023-04-07T07:14:18;60.33;;;16.13;;
60243;SDS011;46106;51.468;5.814;2023-04-07T07:16:43;45.35;;;14.43;;
60243;SDS011;46106;51.468;5.814;2023-04-07T07:19:09;35.03;;;13.57;;
60243;SDS011;46106;51.468;5.814;2023-04-07T07:21:35;45.28;;;14.77;;
60243;SDS011;46106;51.468;5.814;2023-04-07T07:24:01;32.58;;;11.02;;
60243;SDS011;46106;51.468;5.814;2023-04-07T07:26:26;30.58;;;10.02;;
60243;SDS011;46106;51.468;5.814;2023-04-07T07:28:51;29.08;;;10.73;;
60243;SDS011;46106;51.468;5.814;2023-04-07T07:31:17;27.30;;;10.98;;
60243;SDS011;46106;51.468;5.814;2023-04-07T07:33:43;33.08;;;12.32;;
60243;SDS011;46106;51.468;5.814;2023-04-07T07:36:10;30.60;;;11.52;;
60243;SDS011;46106;51.468;5.814;2023-04-07T07:38:36;38.20;;;12.27;;
60243;SDS011;46106;51.468;5.814;2023-04-07T07:41:01;25.67;;;9.18;;
60243;SDS011;46106;51.468;5.814;2023-04-07T07:43:27;24.52;;;11.20;;
60243;SDS011;46106;51.468;5.814;2023-04-07T07:45:53;32.33;;;10.30;;
60243;SDS011;46106;51.468;5.814;2023-04-07T07:48:19;26.83;;;9.73;;
60243;SDS011;46106;51.468;5.814;2023-04-07T07:50:44;25.50;;;9.40;;
60243;SDS011;46106;51.468;5.814;2023-04-07T07:53:14;36.10;;;9.45;;
60243;SDS011;46106;51.468;5.814;2023-04-07T07:55:39;22.58;;;9.18;;
60243;SDS011;46106;51.468;5.814;2023-04-07T07:58:05;22.52;;;8.95;;
60243;SDS011;46106;51.468;5.814;2023-04-07T08:00:30;33.25;;;9.55;;
60243;SDS011;46106;51.468;5.814;2023-04-07T08:02:56;19.67;;;7.70;;
60243;SDS011;46106;51.468;5.814;2023-04-07T08:05:21;12.27;;;6.72;;
60243;SDS011;46106;51.468;5.814;2023-04-07T08:07:47;19.88;;;7.32;;
60243;SDS011;46106;51.468;5.814;2023-04-07T08:10:14;19.10;;;7.20;;
60243;SDS011;46106;51.468;5.814;2023-04-07T08:12:40;16.60;;;8.48;;
60243;SDS011;46106;51.468;5.814;2023-04-07T08:15:05;20.00;;;7.97;;
60243;SDS011;46106;51.468;5.814;2023-04-07T08:17:34;14.70;;;7.75;;
60243;SDS011;46106;51.468;5.814;2023-04-07T08:20:03;16.13;;;7.50;;
60243;SDS011;46106;51.468;5.814;2023-04-07T08:22:29;16.00;;;7.30;;
60243;SDS011;46106;51.468;5.814;2023-04-07T08:24:55;16.55;;;7.53;;
60243;SDS011;46106;51.468;5.814;2023-04-07T08:27:20;16.58;;;7.55;;
60243;SDS011;46106;51.468;5.814;2023-04-07T08:30:04;12.88;;;6.63;;
60243;SDS011;46106;51.468;5.814;2023-04-07T08:32:40;16.58;;;6.82;;
60243;SDS011;46106;51.468;5.814;2023-04-07T08:35:07;18.58;;;7.30;;
60243;SDS011;46106;51.468;5.814;2023-04-07T08:37:33;15.88;;;6.88;;
60243;SDS011;46106;51.468;5.814;2023-04-07T08:40:00;13.43;;;7.30;;
60243;SDS011;46106;51.468;5.814;2023-04-07T08:42:27;16.58;;;6.75;;
60243;SDS011;46106;51.468;5.814;2023-04-07T08:45:04;18.10;;;7.35;;
60243;SDS011;46106;51.468;5.814;2023-04-07T08:47:31;19.88;;;7.25;;
60243;SDS011;46106;51.468;5.814;2023-04-07T08:50:02;14.77;;;6.65;;
60243;SDS011;46106;51.468;5.814;2023-04-07T08:52:38;18.15;;;7.75;;
60243;SDS011;46106;51.468;5.814;2023-04-07T08:55:08;20.63;;;9.60;;
60243;SDS011;46106;51.468;5.814;2023-04-07T08:57:34;15.95;;;8.90;;
60243;SDS011;46106;51.468;5.814;2023-04-07T09:00:01;20.10;;;8.80;;
60243;SDS011;46106;51.468;5.814;2023-04-07T09:02:33;26.20;;;10.15;;
60243;SDS011;46106;51.468;5.814;2023-04-07T09:05:02;21.13;;;9.50;;
60243;SDS011;46106;51.468;5.814;2023-04-07T09:07:30;22.13;;;8.13;;
60243;SDS011;46106;51.468;5.814;2023-04-07T09:09:57;19.98;;;8.45;;
60243;SDS011;46106;51.468;5.814;2023-04-07T09:12:22;20.38;;;9.02;;
60243;SDS011;46106;51.468;5.814;2023-04-07T09:14:48;18.65;;;7.80;;
60243;SDS011;46106;51.468;5.814;2023-04-07T09:17:13;22.00;;;10.80;;
60243;SDS011;46106;51.468;5.814;2023-04-07T09:19:39;21.33;;;9.07;;
60243;SDS011;46106;51.468;5.814;2023-04-07T09:22:05;18.10;;;8.85;;
60243;SDS011;46106;51.468;5.814;2023-04-07T09:24:30;14.80;;;8.27;;
60243;SDS011;46106;51.468;5.814;2023-04-07T09:27:12;18.30;;;7.57;;
60243;SDS011;46106;51.468;5.814;2023-04-07T09:29:39;17.40;;;7.18;;
60243;SDS011;46106;51.468;5.814;2023-04-07T09:32:07;14.43;;;6.50;;
60243;SDS011;46106;51.468;5.814;2023-04-07T09:34:35;20.00;;;7.35;;
60243;SDS011;46106;51.468;5.814;2023-04-07T09:37:02;11.77;;;5.85;;
60243;SDS011;46106;51.468;5.814;2023-04-07T09:39:30;13.23;;;6.28;;
60243;SDS011;46106;51.468;5.814;2023-04-07T09:41:55;18.02;;;6.80;;
60243;SDS011;46106;51.468;5.814;2023-04-07T09:44:22;13.93;;;6.13;;
60243;SDS011;46106;51.468;5.814;2023-04-07T09:46:53;19.13;;;6.88;;
60243;SDS011;46106;51.468;5.814;2023-04-07T09:49:20;13.68;;;5.88;;
60243;SDS011;46106;51.468;5.814;2023-04-07T09:54:33;21.65;;;7.47;;
60243;SDS011;46106;51.468;5.814;2023-04-07T09:57:05;20.35;;;6.32;;
60243;SDS011;46106;51.468;5.814;2023-04-07T09:59:35;12.23;;;5.38;;
60243;SDS011;46106;51.468;5.814;2023-04-07T10:02:02;19.50;;;5.53;;
60243;SDS011;46106;51.468;5.814;2023-04-07T10:04:28;14.05;;;6.05;;
60243;SDS011;46106;51.468;5.814;2023-04-07T10:06:55;11.52;;;5.95;;
60243;SDS011;46106;51.468;5.814;2023-04-07T10:09:21;21.27;;;6.68;;
60243;SDS011;46106;51.468;5.814;2023-04-07T10:11:50;12.77;;;5.90;;
60243;SDS011;46106;51.468;5.814;2023-04-07T10:14:17;18.00;;;6.97;;
60243;SDS011;46106;51.468;5.814;2023-04-07T10:16:43;14.00;;;5.80;;
60243;SDS011;46106;51.468;5.814;2023-04-07T10:19:11;12.20;;;5.88;;
60243;SDS011;46106;51.468;5.814;2023-04-07T10:21:38;12.05;;;5.00;;
60243;SDS011;46106;51.468;5.814;2023-04-07T10:26:46;22.10;;;5.68;;
60243;SDS011;46106;51.468;5.814;2023-04-07T10:29:16;11.18;;;5.18;;
60243;SDS011;46106;51.468;5.814;2023-04-07T10:31:43;11.63;;;5.50;;
60243;SDS011;46106;51.468;5.814;2023-04-07T10:34:10;14.75;;;5.30;;
60243;SDS011;46106;51.468;5.814;2023-04-07T10:36:36;17.83;;;5.32;;
60243;SDS011;46106;51.468;5.814;2023-04-07T10:39:37;17.75;;;5.43;;
60243;SDS011;46106;51.468;5.814;2023-04-07T10:42:03;13.95;;;4.75;;
60243;SDS011;46106;51.468;5.814;2023-04-07T10:47:03;7.18;;;4.40;;
60243;SDS011;46106;51.468;5.814;2023-04-07T10:49:30;17.02;;;4.25;;
60243;SDS011;46106;51.468;5.814;2023-04-07T10:54:35;12.13;;;4.22;;
60243;SDS011;46106;51.468;5.814;2023-04-07T10:59:27;15.65;;;4.20;;
60243;SDS011;46106;51.468;5.814;2023-04-07T11:04:42;14.25;;;3.53;;
60243;SDS011;46106;51.468;5.814;2023-04-07T11:07:10;25.30;;;5.30;;
60243;SDS011;46106;51.468;5.814;2023-04-07T11:09:37;15.00;;;4.85;;
60243;SDS011;46106;51.468;5.814;2023-04-07T11:12:02;13.20;;;4.55;;
60243;SDS011;46106;51.468;5.814;2023-04-07T11:14:29;13.02;;;4.63;;
60243;SDS011;46106;51.468;5.814;2023-04-07T11:16:56;21.98;;;4.57;;
60243;SDS011;46106;51.468;5.814;2023-04-07T11:19:28;13.18;;;4.55;;
60243;SDS011;46106;51.468;5.814;2023-04-07T11:22:15;14.10;;;4.53;;
60243;SDS011;46106;51.468;5.814;2023-04-07T11:24:41;10.98;;;3.53;;
60243;SDS011;46106;51.468;5.814;2023-04-07T11:27:13;15.80;;;4.03;;
60243;SDS011;46106;51.468;5.814;2023-04-07T11:29:39;14.75;;;4.40;;
60243;SDS011;46106;51.468;5.814;2023-04-07T11:32:05;10.32;;;4.20;;
60243;SDS011;46106;51.468;5.814;2023-04-07T11:34:31;15.20;;;4.82;;
60243;SDS011;46106;51.468;5.814;2023-04-07T11:36:58;20.60;;;5.90;;
60243;SDS011;46106;51.468;5.814;2023-04-07T11:39:43;13.77;;;4.60;;
60243;SDS011;46106;51.468;5.814;2023-04-07T11:42:11;14.35;;;4.75;;
60243;SDS011;46106;51.468;5.814;2023-04-07T11:44:46;20.60;;;5.10;;
60243;SDS011;46106;51.468;5.814;2023-04-07T11:47:11;12.98;;;4.72;;
60243;SDS011;46106;51.468;5.814;2023-04-07T11:49:43;14.38;;;4.63;;
60243;SDS011;46106;51.468;5.814;2023-04-07T11:52:10;16.27;;;4.40;;
60243;SDS011;46106;51.468;5.814;2023-04-07T11:54:42;16.40;;;6.28;;
60243;SDS011;46106;51.468;5.814;2023-04-07T11:57:10;13.98;;;5.20;;
60243;SDS011;46106;51.468;5.814;2023-04-07T11:59:37;17.20;;;5.60;;
60243;SDS011;46106;51.468;5.814;2023-04-07T12:02:04;18.35;;;5.00;;
60243;SDS011;46106;51.468;5.814;2023-04-07T12:04:29;13.30;;;5.20;;
60243;SDS011;46106;51.468;5.814;2023-04-07T12:07:05;8.73;;;3.88;;
60243;SDS011;46106;51.468;5.814;2023-04-07T12:09:32;19.13;;;6.47;;
60243;SDS011;46106;51.468;5.814;2023-04-07T12:12:02;14.63;;;4.90;;
60243;SDS011;46106;51.468;5.814;2023-04-07T12:14:32;18.38;;;4.88;;
60243;SDS011;46106;51.468;5.814;2023-04-07T12:16:58;19.92;;;4.63;;
60243;SDS011;46106;51.468;5.814;2023-04-07T12:19:27;20.65;;;4.47;;
60243;SDS011;46106;51.468;5.814;2023-04-07T12:21:54;17.88;;;4.35;;
60243;SDS011;46106;51.468;5.814;2023-04-07T12:24:20;15.85;;;4.65;;
60243;SDS011;46106;51.468;5.814;2023-04-07T12:26:46;19.67;;;5.25;;
60243;SDS011;46106;51.468;5.814;2023-04-07T12:29:12;23.45;;;5.78;;
60243;SDS011;46106;51.468;5.814;2023-04-07T12:31:38;20.67;;;4.70;;
60243;SDS011;46106;51.468;5.814;2023-04-07T12:34:03;17.23;;;4.85;;
60243;SDS011;46106;51.468;5.814;2023-04-07T12:36:29;17.08;;;5.07;;
60243;SDS011;46106;51.468;5.814;2023-04-07T12:38:55;17.08;;;5.82;;
60243;SDS011;46106;51.468;5.814;2023-04-07T12:41:21;15.32;;;4.72;;
60243;SDS011;46106;51.468;5.814;2023-04-07T12:43:48;26.50;;;5.63;;
60243;SDS011;46106;51.468;5.814;2023-04-07T12:46:14;16.58;;;6.43;;
60243;SDS011;46106;51.468;5.814;2023-04-07T12:48:39;21.02;;;4.82;;
60243;SDS011;46106;51.468;5.814;2023-04-07T12:51:05;16.00;;;4.72;;
60243;SDS011;46106;51.468;5.814;2023-04-07T12:53:30;15.70;;;4.57;;
60243;SDS011;46106;51.468;5.814;2023-04-07T12:55:59;14.85;;;5.25;;
60243;SDS011;46106;51.468;5.814;2023-04-07T12:58:24;16.00;;;4.60;;
60243;SDS011;46106;51.468;5.814;2023-04-07T13:00:51;15.45;;;4.63;;
60243;SDS011;46106;51.468;5.814;2023-04-07T13:03:17;17.05;;;4.50;;
60243;SDS011;46106;51.468;5.814;2023-04-07T13:05:43;19.10;;;4.75;;
60243;SDS011;46106;51.468;5.814;2023-04-07T13:08:08;13.98;;;3.58;;
60243;SDS011;46106;51.468;5.814;2023-04-07T13:10:34;21.25;;;3.85;;
60243;SDS011;46106;51.468;5.814;2023-04-07T13:13:03;15.13;;;4.30;;
60243;SDS011;46106;51.468;5.814;2023-04-07T13:15:28;18.52;;;4.63;;
60243;SDS011;46106;51.468;5.814;2023-04-07T13:17:54;13.75;;;4.32;;
60243;SDS011;46106;51.468;5.814;2023-04-07T13:20:20;17.25;;;4.47;;
60243;SDS011;46106;51.468;5.814;2023-04-07T13:22:46;23.25;;;4.72;;
60243;SDS011;46106;51.468;5.814;2023-04-07T13:25:12;17.00;;;3.90;;
60243;SDS011;46106;51.468;5.814;2023-04-07T13:27:38;13.95;;;3.67;;
60243;SDS011;46106;51.468;5.814;2023-04-07T13:30:03;19.35;;;4.18;;
60243;SDS011;46106;51.468;5.814;2023-04-07T13:32:30;13.48;;;4.10;;
60243;SDS011;46106;51.468;5.814;2023-04-07T13:34:55;23.30;;;4.43;;
60243;SDS011;46106;51.468;5.814;2023-04-07T13:37:21;9.48;;;4.20;;
60243;SDS011;46106;51.468;5.814;2023-04-07T13:39:46;17.50;;;4.50;;
60243;SDS011;46106;51.468;5.814;2023-04-07T13:42:12;16.35;;;4.20;;
60243;SDS011;46106;51.468;5.814;2023-04-07T13:44:40;21.92;;;5.25;;
60243;SDS011;46106;51.468;5.814;2023-04-07T13:47:09;16.33;;;4.32;;
60243;SDS011;46106;51.468;5.814;2023-04-07T13:49:35;25.23;;;4.30;;
60243;SDS011;46106;51.468;5.814;2023-04-07T13:52:00;15.73;;;4.53;;
60243;SDS011;46106;51.468;5.814;2023-04-07T13:54:26;16.30;;;4.55;;
60243;SDS011;46106;51.468;5.814;2023-04-07T13:56:52;13.18;;;4.43;;
60243;SDS011;46106;51.468;5.814;2023-04-07T13:59:17;12.10;;;4.50;;
60243;SDS011;46106;51.468;5.814;2023-04-07T14:01:43;21.73;;;4.85;;
60243;SDS011;46106;51.468;5.814;2023-04-07T14:04:08;19.02;;;4.50;;
60243;SDS011;46106;51.468;5.814;2023-04-07T14:06:35;18.27;;;3.70;;
60243;SDS011;46106;51.468;5.814;2023-04-07T14:09:02;15.25;;;4.63;;
60243;SDS011;46106;51.468;5.814;2023-04-07T14:11:29;17.52;;;4.35;;
60243;SDS011;46106;51.468;5.814;2023-04-07T14:13:54;15.88;;;4.90;;
60243;SDS011;46106;51.468;5.814;2023-04-07T14:16:23;20.70;;;5.50;;
60243;SDS011;46106;51.468;5.814;2023-04-07T14:18:49;24.38;;;5.60;;
60243;SDS011;46106;51.468;5.814;2023-04-07T14:21:15;20.13;;;5.70;;
60243;SDS011;46106;51.468;5.814;2023-04-07T14:23:41;18.17;;;5.68;;
60243;SDS011;46106;51.468;5.814;2023-04-07T14:26:10;12.57;;;4.90;;
60243;SDS011;46106;51.468;5.814;2023-04-07T14:28:36;21.58;;;6.60;;
60243;SDS011;46106;51.468;5.814;2023-04-07T14:31:02;19.60;;;5.45;;
60243;SDS011;46106;51.468;5.814;2023-04-07T14:33:27;25.50;;;5.07;;
60243;SDS011;46106;51.468;5.814;2023-04-07T14:35:53;18.33;;;4.80;;
60243;SDS011;46106;51.468;5.814;2023-04-07T14:38:19;32.92;;;5.88;;
60243;SDS011;46106;51.468;5.814;2023-04-07T14:40:48;32.50;;;5.95;;
60243;SDS011;46106;51.468;5.814;2023-04-07T14:43:14;22.20;;;4.78;;
60243;SDS011;46106;51.468;5.814;2023-04-07T14:45:39;22.42;;;4.63;;
60243;SDS011;46106;51.468;5.814;2023-04-07T14:48:05;19.77;;;5.53;;
60243;SDS011;46106;51.468;5.814;2023-04-07T14:50:31;20.30;;;5.30;;